createdAt,value
2023-03-02T00:00:16.304Z,97919.41
2023-03-02T00:02:45.506Z,97912.47
2023-03-02T00:05:14.663Z,97923.41
2023-03-02T00:07:43.746Z,97930.16
2023-03-02T00:10:13.333Z,97934.44
2023-03-02T00:12:43.432Z,97921.31
2023-03-02T00:15:12.586Z,97921.59
2023-03-02T00:17:41.331Z,97917.56
2023-03-02T00:20:12.944Z,97921.88
2023-03-02T00:22:44.540Z,97917.00
2023-03-02T00:25:17.039Z,97911.38
2023-03-02T00:27:47.126Z,97911.91
2023-03-02T00:30:17.126Z,97912.47
2023-03-02T00:32:45.849Z,97907.38
2023-03-02T00:35:14.489Z,97908.69
2023-03-02T00:37:43.382Z,97917.00
2023-03-02T00:40:12.961Z,97904.94
2023-03-02T00:42:41.484Z,97898.22
2023-03-02T00:45:12.411Z,97905.47
2023-03-02T00:47:42.501Z,97899.31
2023-03-02T00:50:12.202Z,97895.81
2023-03-02T00:52:40.858Z,97896.09
2023-03-02T00:55:10.267Z,97890.19
2023-03-02T00:57:38.845Z,97892.59
2023-03-02T01:00:10.155Z,97886.13
2023-03-02T01:02:44.460Z,97884.81
2023-03-02T01:05:17.781Z,97882.13
2023-03-02T01:07:46.640Z,97888.03
2023-03-02T01:10:15.783Z,97878.09
2023-03-02T01:12:44.637Z,97879.97
2023-03-02T01:15:13.909Z,97874.63
2023-03-02T01:17:44.056Z,97870.31
2023-03-02T01:20:14.121Z,97868.19
2023-03-02T01:22:44.744Z,97863.88
2023-03-02T01:25:14.560Z,97866.56
2023-03-02T01:27:44.484Z,97856.88
2023-03-02T01:30:15.060Z,97853.16
2023-03-02T01:32:44.975Z,97848.81
2023-03-02T01:35:13.893Z,97844.81
2023-03-02T01:37:42.878Z,97838.09
2023-03-02T01:40:15.456Z,97838.38
2023-03-02T01:42:53.440Z,97837.84
2023-03-02T01:45:53.311Z,97834.91
2023-03-02T01:48:36.108Z,97835.16
2023-03-02T01:51:07.881Z,97839.16
2023-03-02T01:53:38.750Z,97831.94
2023-03-02T01:56:08.478Z,97835.16
2023-03-02T01:58:38.564Z,97845.91
2023-03-02T02:01:15.302Z,97835.94
2023-03-02T02:03:49.126Z,97834.63
2023-03-02T02:06:25.436Z,97828.97
2023-03-02T02:08:57.469Z,97832.47
2023-03-02T02:11:26.450Z,97834.59
2023-03-02T02:13:59.981Z,97839.19
2023-03-02T02:16:32.819Z,97827.91
2023-03-02T02:19:04.970Z,97831.94
2023-03-02T02:21:33.557Z,97831.13
2023-03-02T02:24:11.034Z,97828.44
2023-03-02T02:26:47.710Z,97830.84
2023-03-02T02:29:23.023Z,97828.44
2023-03-02T02:31:59.077Z,97831.09
2023-03-02T02:34:35.656Z,97833.00
2023-03-02T02:37:15.168Z,97823.63
2023-03-02T02:39:48.959Z,97827.09
2023-03-02T02:42:26.377Z,97842.66
2023-03-02T02:44:59.343Z,97831.66
2023-03-02T02:47:30.106Z,97837.81
2023-03-02T02:50:00.115Z,97835.16
2023-03-02T02:52:30.645Z,97834.31
2023-03-02T02:55:00.112Z,97828.97
2023-03-02T02:57:32.351Z,97830.03
2023-03-02T03:00:03.398Z,97829.75
2023-03-02T03:02:41.021Z,97834.31
2023-03-02T03:05:15.549Z,97842.34
2023-03-02T03:07:44.646Z,97835.38
2023-03-02T03:10:22.200Z,97837.50
2023-03-02T03:12:53.547Z,97835.63
2023-03-02T03:15:24.521Z,97835.59
2023-03-02T03:17:56.871Z,97828.34
2023-03-02T03:20:29.246Z,97829.41
2023-03-02T03:22:59.772Z,97829.69
2023-03-02T03:25:32.096Z,97824.56
2023-03-02T03:28:03.972Z,97828.34
2023-03-02T03:30:33.487Z,97822.16
2023-03-02T03:33:02.186Z,97832.34
2023-03-02T03:35:30.813Z,97824.56
2023-03-02T03:37:59.713Z,97821.34
2023-03-02T03:40:29.047Z,97824.59
2023-03-02T03:42:57.993Z,97821.59
2023-03-02T03:45:30.339Z,97827.50
2023-03-02T03:47:59.274Z,97826.97
2023-03-02T03:50:28.133Z,97820.25
2023-03-02T03:52:56.896Z,97817.81
2023-03-02T03:55:30.135Z,97819.16
2023-03-02T03:57:58.978Z,97824.25
2023-03-02T04:00:29.244Z,97816.75
2023-03-02T04:03:03.958Z,97813.03
2023-03-02T04:05:35.266Z,97814.34
2023-03-02T04:08:05.524Z,97823.44
2023-03-02T04:10:35.097Z,97823.16
2023-03-02T04:13:05.126Z,97818.63
2023-03-02T04:15:36.560Z,97826.13
2023-03-02T04:18:05.429Z,97817.31
2023-03-02T04:20:36.465Z,97824.53
2023-03-02T04:23:05.051Z,97812.19
2023-03-02T04:25:33.715Z,97817.81
2023-03-02T04:28:08.324Z,97814.03
2023-03-02T04:30:41.180Z,97826.09
2023-03-02T04:33:10.114Z,97816.16
2023-03-02T04:35:39.202Z,97817.78
2023-03-02T04:38:07.877Z,97816.97
2023-03-02T04:40:36.575Z,97816.91
2023-03-02T04:43:05.125Z,97818.50
2023-03-02T04:45:34.007Z,97814.53
2023-03-02T04:48:03.885Z,97807.53
2023-03-02T04:50:32.832Z,97819.59
2023-03-02T04:53:01.384Z,97818.78
2023-03-02T04:55:30.214Z,97811.28
2023-03-02T04:57:58.791Z,97814.75
2023-03-02T05:00:28.867Z,97812.91
2023-03-02T05:02:58.271Z,97809.66
2023-03-02T05:05:29.655Z,97809.13
2023-03-02T05:07:59.357Z,97816.84
2023-03-02T05:10:30.051Z,97805.88
2023-03-02T05:13:04.962Z,97801.34
2023-03-02T05:15:38.508Z,97804.34
2023-03-02T05:18:10.796Z,97797.38
2023-03-02T05:20:41.269Z,97803.72
2023-03-02T05:23:12.752Z,97805.69
2023-03-02T05:25:41.246Z,97801.91
2023-03-02T05:28:10.247Z,97791.44
2023-03-02T05:30:38.840Z,97794.94
2023-03-02T05:33:07.575Z,97801.34
2023-03-02T05:35:36.299Z,97808.78
2023-03-02T05:38:06.726Z,97804.53
2023-03-02T05:40:36.489Z,97801.09
2023-03-02T05:43:05.524Z,97807.53
2023-03-02T05:45:37.726Z,97806.72
2023-03-02T05:48:08.080Z,97802.44
2023-03-02T05:50:36.779Z,97807.00
2023-03-02T05:53:07.534Z,97806.41
2023-03-02T05:55:37.159Z,97811.72
2023-03-02T05:58:09.012Z,97810.97
2023-03-02T06:00:37.739Z,97818.97
2023-03-02T06:03:06.832Z,97812.81
2023-03-02T06:05:36.426Z,97814.69
2023-03-02T06:08:08.707Z,97809.06
2023-03-02T06:10:38.041Z,97820.34
2023-03-02T06:13:06.759Z,97824.38
2023-03-02T06:15:35.455Z,97816.06
2023-03-02T06:18:04.369Z,97817.69
2023-03-02T06:20:33.001Z,97825.25
2023-03-02T06:23:01.614Z,97824.47
2023-03-02T06:25:32.128Z,97826.34
2023-03-02T06:28:00.776Z,97820.47
2023-03-02T06:30:29.367Z,97823.63
2023-03-02T06:32:59.858Z,97833.56
2023-03-02T06:35:30.220Z,97835.19
2023-03-02T06:38:01.244Z,97836.81
2023-03-02T06:40:31.705Z,97836.31
2023-03-02T06:43:03.864Z,97833.66
2023-03-02T06:45:34.698Z,97831.53
2023-03-02T06:48:04.471Z,97827.31
2023-03-02T06:50:33.384Z,97831.63
2023-03-02T06:53:02.292Z,97827.06
2023-03-02T06:55:32.324Z,97828.16
2023-03-02T06:58:00.920Z,97825.72
2023-03-02T07:00:29.652Z,97835.94
2023-03-02T07:02:58.306Z,97829.53
2023-03-02T07:05:27.206Z,97824.97
2023-03-02T07:07:56.037Z,97825.78
2023-03-02T07:10:24.661Z,97830.88
2023-03-02T07:12:55.027Z,97831.41
2023-03-02T07:15:23.486Z,97822.81
2023-03-02T07:17:52.344Z,97825.50
2023-03-02T07:20:21.668Z,97823.59
2023-03-02T07:22:50.467Z,97834.06
2023-03-02T07:25:19.247Z,97816.63
2023-03-02T07:27:47.984Z,97819.28
2023-03-02T07:30:22.625Z,97816.31
2023-03-02T07:32:51.498Z,97816.31
2023-03-02T07:35:20.795Z,97821.94
2023-03-02T07:37:49.481Z,97824.06
2023-03-02T07:40:18.391Z,97826.66
2023-03-02T07:42:47.085Z,97818.88
2023-03-02T07:45:20.282Z,97821.50
2023-03-02T07:47:49.156Z,97828.44
2023-03-02T07:50:18.061Z,97822.84
2023-03-02T07:52:46.656Z,97821.72
2023-03-02T07:55:15.385Z,97831.38
2023-03-02T07:57:44.193Z,97828.63
2023-03-02T08:00:14.329Z,97819.13
2023-03-02T08:02:44.946Z,97823.91
2023-03-02T08:05:15.715Z,97825.00
2023-03-02T08:07:44.458Z,97838.63
2023-03-02T08:10:13.920Z,97825.31
2023-03-02T08:12:44.141Z,97826.31
2023-03-02T08:15:13.392Z,97823.63
2023-03-02T08:17:43.668Z,97828.69
2023-03-02T08:20:13.472Z,97819.44
2023-03-02T08:22:41.989Z,97822.53
2023-03-02T08:25:10.846Z,97824.16
2023-03-02T08:27:40.328Z,97822.72
2023-03-02T08:30:12.551Z,97825.03
2023-03-02T08:32:43.020Z,97827.19
2023-03-02T08:35:12.910Z,97823.53
2023-03-02T08:37:41.503Z,97822.19
2023-03-02T08:40:12.088Z,97817.44
2023-03-02T08:42:40.721Z,97815.69
2023-03-02T08:45:11.046Z,97802.97
2023-03-02T08:47:39.779Z,97804.72
2023-03-02T08:50:12.094Z,97825.38
2023-03-02T08:52:40.544Z,97814.75
2023-03-02T08:55:11.639Z,97811.56
2023-03-02T08:57:41.680Z,97813.03
2023-03-02T09:00:14.797Z,97815.09
2023-03-02T09:02:43.526Z,97805.75
2023-03-02T09:05:13.589Z,97805.06
2023-03-02T09:07:42.131Z,97797.50
2023-03-02T09:10:12.150Z,97801.41
2023-03-02T09:12:40.743Z,97797.59
2023-03-02T09:15:10.076Z,97801.59
2023-03-02T09:17:38.714Z,97801.59
2023-03-02T09:20:09.501Z,97803.69
2023-03-02T09:22:39.558Z,97805.00
2023-03-02T09:25:09.364Z,97801.44
2023-03-02T09:27:37.894Z,97801.03
2023-03-02T09:30:08.667Z,97806.63
2023-03-02T09:32:37.468Z,97797.97
2023-03-02T09:35:07.551Z,97798.00
2023-03-02T09:37:38.705Z,97800.72
2023-03-02T09:40:20.799Z,97807.13
2023-03-02T09:43:38.205Z,97797.59
2023-03-02T09:46:19.243Z,97813.25
2023-03-02T09:49:14.597Z,97799.00
2023-03-02T09:51:54.925Z,97803.53
2023-03-02T09:54:25.674Z,97806.22
2023-03-02T09:57:00.110Z,97812.84
2023-03-02T09:59:34.136Z,97797.56
2023-03-02T10:02:18.461Z,97797.88
2023-03-02T10:04:53.070Z,97796.19
2023-03-02T10:07:28.671Z,97797.00
2023-03-02T10:10:03.936Z,97798.56
2023-03-02T10:12:55.077Z,97793.41
2023-03-02T10:15:32.326Z,97794.78
2023-03-02T10:18:13.991Z,97789.94
2023-03-02T10:20:53.037Z,97792.22
2023-03-02T10:23:43.594Z,97784.47
2023-03-02T10:26:39.723Z,97779.06
2023-03-02T10:29:48.436Z,97777.34
2023-03-02T10:32:24.255Z,97776.09
2023-03-02T10:34:54.766Z,97778.53
2023-03-02T10:37:26.635Z,97788.63
2023-03-02T10:39:56.128Z,97783.25
2023-03-02T10:42:32.025Z,97777.81
2023-03-02T10:45:26.604Z,97775.34
2023-03-02T10:48:02.549Z,97773.28
2023-03-02T10:50:31.677Z,97764.72
2023-03-02T10:53:02.928Z,97774.66
2023-03-02T10:55:35.614Z,97768.72
2023-03-02T10:58:07.723Z,97770.63
2023-03-02T11:00:37.923Z,97764.88
2023-03-02T11:03:23.628Z,97763.41
2023-03-02T11:05:52.284Z,97754.22
2023-03-02T11:08:24.004Z,97759.19
2023-03-02T11:10:59.752Z,97755.72
2023-03-02T11:13:33.443Z,97744.25
2023-03-02T11:16:05.877Z,97753.16
2023-03-02T11:18:39.697Z,97743.69
2023-03-02T11:21:15.205Z,97749.84
2023-03-02T11:23:58.961Z,97747.84
2023-03-02T11:26:33.460Z,97743.53
2023-03-02T11:29:12.787Z,97741.59
2023-03-02T11:31:49.316Z,97742.66
2023-03-02T11:34:41.632Z,97731.06
2023-03-02T11:37:22.050Z,97731.13
2023-03-02T11:40:20.533Z,97730.50
2023-03-02T11:42:49.954Z,97723.97
2023-03-02T11:45:24.455Z,97725.19
2023-03-02T11:48:04.145Z,97719.03
2023-03-02T11:50:38.072Z,97714.97
2023-03-02T11:53:13.820Z,97723.63
2023-03-02T11:55:48.520Z,97721.09
2023-03-02T11:58:21.834Z,97720.56
2023-03-02T12:00:53.437Z,97715.78
2023-03-02T12:03:39.034Z,97715.06
2023-03-02T12:06:26.542Z,97711.72
2023-03-02T12:09:08.682Z,97707.31
2023-03-02T12:11:41.198Z,97711.91
2023-03-02T12:14:29.928Z,97700.94
2023-03-02T12:17:22.219Z,97709.78
2023-03-02T12:19:55.605Z,97699.88
2023-03-02T12:22:32.380Z,97696.09
2023-03-02T12:25:07.026Z,97699.38
2023-03-02T12:27:39.874Z,97700.75
2023-03-02T12:30:26.661Z,97696.66
2023-03-02T12:33:17.642Z,97690.88
2023-03-02T12:35:56.291Z,97678.66
2023-03-02T12:38:31.883Z,97678.47
2023-03-02T12:41:31.205Z,97680.09
2023-03-02T12:44:43.859Z,97674.16
2023-03-02T12:47:27.175Z,97669.84
2023-03-02T12:50:00.257Z,97666.28
2023-03-02T12:52:33.700Z,97662.78
2023-03-02T12:55:07.522Z,97666.97
2023-03-02T12:57:47.733Z,97665.06
2023-03-02T13:00:21.105Z,97657.22
2023-03-02T13:02:52.417Z,97663.78
2023-03-02T13:05:24.558Z,97664.38
2023-03-02T13:08:02.536Z,97651.75
2023-03-02T13:10:37.122Z,97652.41
2023-03-02T13:13:18.932Z,97653.22
2023-03-02T13:15:54.490Z,97651.38
2023-03-02T13:18:25.817Z,97641.41
2023-03-02T13:20:55.701Z,97644.25
2023-03-02T13:23:28.402Z,97645.25
2023-03-02T13:25:59.802Z,97645.03
2023-03-02T13:28:31.440Z,97638.91
2023-03-02T13:31:03.963Z,97640.72
2023-03-02T13:33:35.493Z,97628.09
2023-03-02T13:36:05.073Z,97626.81
2023-03-02T13:38:38.742Z,97624.63
2023-03-02T13:41:08.915Z,97630.00
2023-03-02T13:43:40.550Z,97619.59
2023-03-02T13:46:29.840Z,97620.28
2023-03-02T13:49:09.835Z,97619.66
2023-03-02T13:51:43.157Z,97624.66
2023-03-02T13:54:22.449Z,97627.31
2023-03-02T13:56:53.555Z,97621.72
2023-03-02T13:59:24.317Z,97620.47
2023-03-02T14:01:58.940Z,97615.91
2023-03-02T14:04:27.799Z,97607.94
2023-03-02T14:06:56.520Z,97617.41
2023-03-02T14:09:27.712Z,97618.44
2023-03-02T14:11:57.898Z,97614.44
2023-03-02T14:14:31.138Z,97611.34
2023-03-02T14:16:59.794Z,97614.44
2023-03-02T14:19:28.395Z,97605.22
2023-03-02T14:21:57.032Z,97605.00
2023-03-02T14:24:27.227Z,97616.81
2023-03-02T14:26:55.985Z,97608.88
2023-03-02T14:29:28.323Z,97606.16
2023-03-02T14:32:00.197Z,97605.75
2023-03-02T14:34:28.943Z,97601.34
2023-03-02T14:37:03.419Z,97593.63
2023-03-02T14:39:37.966Z,97599.44
2023-03-02T14:42:13.893Z,97596.22
2023-03-02T14:44:43.682Z,97597.03
2023-03-02T14:47:12.676Z,97589.88
2023-03-02T14:49:41.691Z,97593.88
2023-03-02T14:52:18.464Z,97587.72
2023-03-02T14:54:55.056Z,97588.00
2023-03-02T14:57:27.089Z,97593.06
2023-03-02T14:59:59.828Z,97588.97
2023-03-02T15:02:29.034Z,97596.56
2023-03-02T15:04:58.143Z,97584.53
2023-03-02T15:07:28.657Z,97587.00
2023-03-02T15:09:59.230Z,97583.41
2023-03-02T15:12:28.055Z,97593.81
2023-03-02T15:14:56.638Z,97591.13
2023-03-02T15:17:25.387Z,97590.09
2023-03-02T15:19:54.514Z,97582.13
2023-03-02T15:22:23.008Z,97590.75
2023-03-02T15:24:52.172Z,97590.88
2023-03-02T15:27:24.886Z,97597.75
2023-03-02T15:29:55.789Z,97593.25
2023-03-02T15:32:25.504Z,97598.47
2023-03-02T15:34:54.364Z,97595.94
2023-03-02T15:37:23.300Z,97595.81
2023-03-02T15:39:55.844Z,97590.19
2023-03-02T15:42:26.227Z,97595.78
2023-03-02T15:44:55.093Z,97597.03
2023-03-02T15:47:24.191Z,97599.56
2023-03-02T15:49:52.887Z,97607.06
2023-03-02T15:52:21.638Z,97598.41
2023-03-02T15:54:50.461Z,97600.22
2023-03-02T15:57:19.276Z,97601.53
2023-03-02T15:59:49.263Z,97605.59
2023-03-02T16:02:17.929Z,97605.47
2023-03-02T16:04:46.665Z,97608.88
2023-03-02T16:07:15.392Z,97615.16
2023-03-02T16:09:45.330Z,97608.41
2023-03-02T16:12:14.101Z,97616.78
2023-03-02T16:14:42.820Z,97611.53
2023-03-02T16:17:13.001Z,97609.03
2023-03-02T16:19:41.753Z,97614.00
2023-03-02T16:22:10.296Z,97620.28
2023-03-02T16:24:40.872Z,97613.59
2023-03-02T16:27:10.430Z,97622.41
2023-03-02T16:29:39.017Z,97620.00
2023-03-02T16:32:09.030Z,97627.56
2023-03-02T16:34:40.137Z,97632.19
2023-03-02T16:37:08.628Z,97621.19
2023-03-02T16:39:37.294Z,97624.53
2023-03-02T16:42:06.323Z,97629.97
2023-03-02T16:44:34.993Z,97628.88
2023-03-02T16:47:03.525Z,97631.56
2023-03-02T16:49:32.057Z,97636.50
2023-03-02T16:52:03.099Z,97627.88
2023-03-02T16:54:32.648Z,97646.22
2023-03-02T16:57:02.107Z,97644.31
2023-03-02T16:59:30.813Z,97645.09
2023-03-02T17:01:59.559Z,97655.28
2023-03-02T17:04:28.590Z,97651.44
2023-03-02T17:07:01.310Z,97661.47
2023-03-02T17:09:35.561Z,97663.47
2023-03-02T17:12:04.996Z,97665.09
2023-03-02T17:14:33.535Z,97665.84
2023-03-02T17:17:05.058Z,97663.28
2023-03-02T17:19:34.116Z,97667.06
2023-03-02T17:22:04.565Z,97670.59
2023-03-02T17:24:35.633Z,97661.16
2023-03-02T17:27:06.815Z,97667.03
2023-03-02T17:29:39.192Z,97669.22
2023-03-02T17:32:07.881Z,97676.72
2023-03-02T17:34:36.469Z,97672.88
2023-03-02T17:37:05.045Z,97680.81
2023-03-02T17:39:36.179Z,97681.25
2023-03-02T17:42:05.070Z,97687.09
2023-03-02T17:44:34.784Z,97680.56
2023-03-02T17:47:05.340Z,97681.78
2023-03-02T17:49:34.228Z,97680.88
2023-03-02T17:52:02.809Z,97686.47
2023-03-02T17:54:31.446Z,97692.63
2023-03-02T17:57:01.474Z,97696.97
2023-03-02T17:59:30.497Z,97702.81
2023-03-02T18:01:59.160Z,97697.31
2023-03-02T18:04:28.013Z,97696.81
2023-03-02T18:06:56.779Z,97705.25
2023-03-02T18:09:25.378Z,97702.78
2023-03-02T18:11:54.075Z,97701.00
2023-03-02T18:14:28.374Z,97704.81
2023-03-02T18:16:57.056Z,97698.91
2023-03-02T18:19:25.715Z,97700.31
2023-03-02T18:21:54.307Z,97692.94
2023-03-02T18:24:23.135Z,97701.84
2023-03-02T18:26:51.704Z,97699.84
2023-03-02T18:29:20.931Z,97700.44
2023-03-02T18:31:51.193Z,97703.44
2023-03-02T18:34:20.214Z,97709.28
2023-03-02T18:36:48.958Z,97712.78
2023-03-02T18:39:17.538Z,97712.50
2023-03-02T18:41:46.108Z,97711.50
2023-03-02T18:44:14.993Z,97711.31
2023-03-02T18:46:44.233Z,97707.59
2023-03-02T18:49:14.597Z,97708.31
2023-03-02T18:51:43.315Z,97722.53
2023-03-02T18:54:12.190Z,97716.34
2023-03-02T18:56:40.752Z,97721.78
2023-03-02T18:59:11.144Z,97725.69
2023-03-02T19:01:40.123Z,97733.81
2023-03-02T19:04:09.025Z,97725.38
2023-03-02T19:06:39.000Z,97724.16
2023-03-02T19:09:07.765Z,97733.50
2023-03-02T19:11:37.097Z,97736.38
2023-03-02T19:14:05.848Z,97729.28
2023-03-02T19:16:35.868Z,97741.00
2023-03-02T19:19:04.558Z,97737.75
2023-03-02T19:21:33.310Z,97745.00
2023-03-02T19:24:03.254Z,97738.78
2023-03-02T19:26:32.073Z,97741.63
2023-03-02T19:29:00.921Z,97744.31
2023-03-02T19:31:30.453Z,97752.13
2023-03-02T19:33:59.136Z,97752.22
2023-03-02T19:36:27.753Z,97761.22
2023-03-02T19:38:56.531Z,97757.03
2023-03-02T19:41:26.839Z,97754.13
2023-03-02T19:43:55.748Z,97753.41
2023-03-02T19:46:24.351Z,97761.84
2023-03-02T19:48:53.260Z,97768.50
2023-03-02T19:51:21.768Z,97766.22
2023-03-02T19:53:50.735Z,97769.09
2023-03-02T19:56:21.970Z,97768.91
2023-03-02T19:58:54.153Z,97774.59
2023-03-02T20:01:24.991Z,97774.41
2023-03-02T20:03:55.919Z,97776.47
2023-03-02T20:06:30.493Z,97777.94
2023-03-02T20:09:02.485Z,97775.06
2023-03-02T20:11:31.763Z,97782.69
2023-03-02T20:14:02.911Z,97789.47
2023-03-02T20:16:33.749Z,97789.47
2023-03-02T20:19:03.964Z,97789.59
2023-03-02T20:21:34.346Z,97785.13
2023-03-02T20:24:02.941Z,97789.13
2023-03-02T20:26:32.017Z,97795.91
2023-03-02T20:29:05.742Z,97792.56
2023-03-02T20:31:36.213Z,97792.88
2023-03-02T20:34:10.751Z,97792.19
2023-03-02T20:36:39.896Z,97798.50
2023-03-02T20:39:14.206Z,97798.00
2023-03-02T20:41:43.175Z,97808.28
2023-03-02T20:44:14.851Z,97805.34
2023-03-02T20:46:48.517Z,97804.00
2023-03-02T20:49:17.649Z,97800.34
2023-03-02T20:51:52.885Z,97797.25
2023-03-02T20:54:24.045Z,97801.56
2023-03-02T20:56:54.220Z,97805.16
2023-03-02T20:59:25.495Z,97802.78
2023-03-02T21:01:55.089Z,97805.78
2023-03-02T21:04:24.128Z,97809.84
2023-03-02T21:06:53.487Z,97801.72
2023-03-02T21:09:22.528Z,97802.75
2023-03-02T21:11:51.366Z,97807.41
2023-03-02T21:14:20.311Z,97806.88
2023-03-02T21:16:50.737Z,97811.22
2023-03-02T21:19:20.210Z,97812.03
2023-03-02T21:21:48.891Z,97811.75
2023-03-02T21:24:18.064Z,97809.00
2023-03-02T21:26:48.779Z,97815.47
2023-03-02T21:29:20.897Z,97804.44
2023-03-02T21:31:51.938Z,97807.13
2023-03-02T21:34:21.820Z,97804.19
2023-03-02T21:36:53.607Z,97808.56
2023-03-02T21:39:24.019Z,97808.56
2023-03-02T21:41:54.062Z,97810.19
2023-03-02T21:44:22.777Z,97809.50
2023-03-02T21:46:52.815Z,97815.38
2023-03-02T21:49:23.990Z,97819.97
2023-03-02T21:51:52.690Z,97813.31
2023-03-02T21:54:21.440Z,97812.78
2023-03-02T21:56:50.357Z,97813.34
2023-03-02T21:59:19.095Z,97814.47
2023-03-02T22:01:48.193Z,97812.03
2023-03-02T22:04:18.397Z,97817.19
2023-03-02T22:06:47.132Z,97816.16
2023-03-02T22:09:15.723Z,97819.97
2023-03-02T22:11:45.861Z,97815.94
2023-03-02T22:14:18.026Z,97815.16
2023-03-02T22:16:48.338Z,97810.28
2023-03-02T22:19:27.652Z,97819.16
2023-03-02T22:21:57.922Z,97819.44
2023-03-02T22:24:29.963Z,97814.91
2023-03-02T22:27:22.984Z,97814.09
2023-03-02T22:29:54.602Z,97813.88
2023-03-02T22:32:29.346Z,97811.44
2023-03-02T22:35:02.679Z,97811.75
2023-03-02T22:37:35.662Z,97812.31
2023-03-02T22:40:25.542Z,97816.31
2023-03-02T22:43:08.322Z,97811.50
2023-03-02T22:45:37.105Z,97818.78
2023-03-02T22:48:15.683Z,97817.13
2023-03-02T22:50:48.044Z,97817.97
2023-03-02T22:53:28.045Z,97817.69
2023-03-02T22:56:00.252Z,97819.03
2023-03-02T22:58:45.817Z,97821.19
2023-03-02T23:01:24.221Z,97826.28
2023-03-02T23:03:55.266Z,97817.72
2023-03-02T23:06:34.016Z,97822.53
2023-03-02T23:09:07.227Z,97826.59
2023-03-02T23:11:39.947Z,97831.16
2023-03-02T23:14:23.791Z,97828.19
2023-03-02T23:17:00.441Z,97832.75
2023-03-02T23:19:31.678Z,97833.56
2023-03-02T23:22:01.666Z,97836.22
2023-03-02T23:24:30.525Z,97821.22
2023-03-02T23:26:58.984Z,97831.41
2023-03-02T23:29:27.532Z,97832.22
2023-03-02T23:31:56.477Z,97836.25
2023-03-02T23:34:25.779Z,97828.72
2023-03-02T23:36:54.391Z,97831.97
2023-03-02T23:39:24.485Z,97827.09
2023-03-02T23:41:53.386Z,97824.41
2023-03-02T23:44:22.222Z,97824.44
2023-03-02T23:46:50.886Z,97827.63
2023-03-02T23:49:20.066Z,97823.34
2023-03-02T23:51:48.647Z,97825.75
2023-03-02T23:54:17.458Z,97811.78
2023-03-02T23:56:47.419Z,97811.81
2023-03-02T23:59:15.990Z,97819.59
